Time;durP1;ratioP1;P1;durP2;ratioP2;P2;SDS_P1;SDS_P2;PMS_P1;PMS_P2;Temp;Humidity;BMP_temperature;BMP_pressure;BME280_temperature;BME280_humidity;BME280_pressure;Samples;Min_cycle;Max_cycle;Signal;HPM_P1;HPM_P2
2021/01/21 00:01:41;;;;;;;9.80;5.73;;;6.30;99.90;;;;;;4952252;28;20214;-67
2021/01/21 00:04:07;;;;;;;10.60;6.57;;;6.30;99.90;;;;;;4951833;28;20019;-67
2021/01/21 00:06:33;;;;;;;9.13;6.23;;;6.30;99.90;;;;;;4950621;28;20035;-66
2021/01/21 00:08:59;;;;;;;11.65;5.93;;;6.30;99.90;;;;;;4952183;28;20031;-66
2021/01/21 00:11:25;;;;;;;8.80;5.77;;;6.30;99.90;;;;;;4952181;28;20031;-66
2021/01/21 00:13:50;;;;;;;11.57;6.13;;;6.30;99.90;;;;;;4951697;28;20263;-66
2021/01/21 00:16:16;;;;;;;10.90;6.33;;;6.20;99.90;;;;;;4950655;28;20369;-67
2021/01/21 00:18:42;;;;;;;11.77;5.87;;;6.10;99.90;;;;;;4951646;28;20106;-67
2021/01/21 00:21:07;;;;;;;11.57;5.83;;;6.10;99.90;;;;;;4952017;28;20263;-66
2021/01/21 00:23:33;;;;;;;9.63;6.33;;;6.10;99.90;;;;;;4954492;28;20089;-67
2021/01/21 00:25:59;;;;;;;12.52;6.65;;;6.10;99.90;;;;;;4955041;28;20031;-66
2021/01/21 00:28:25;;;;;;;12.40;6.17;;;6.10;99.90;;;;;;4955081;28;20027;-66
2021/01/21 00:30:50;;;;;;;9.82;6.03;;;6.10;99.90;;;;;;4955083;28;20027;-67
2021/01/21 00:33:16;;;;;;;10.48;6.60;;;6.10;99.90;;;;;;4954925;28;20178;-66
2021/01/21 00:35:42;;;;;;;12.20;6.87;;;6.00;99.90;;;;;;4954809;28;20027;-65
2021/01/21 00:38:07;;;;;;;11.33;6.90;;;6.00;99.90;;;;;;4955290;28;20527;-67
2021/01/21 00:40:33;;;;;;;13.17;6.83;;;6.10;99.90;;;;;;4954704;28;20031;-67
2021/01/21 00:42:59;;;;;;;10.73;6.17;;;6.10;99.90;;;;;;4955228;28;20028;-66
2021/01/21 00:45:24;;;;;;;14.20;6.50;;;6.10;99.90;;;;;;4954005;28;20051;-65
2021/01/21 00:47:50;;;;;;;11.97;6.83;;;6.10;99.90;;;;;;4953346;29;20027;-65
2021/01/21 00:50:16;;;;;;;11.10;6.30;;;6.10;99.90;;;;;;4954619;28;20387;-65
2021/01/21 00:52:41;;;;;;;9.90;5.63;;;6.10;99.90;;;;;;4954376;28;20039;-65
2021/01/21 00:55:07;;;;;;;9.17;6.07;;;6.10;99.90;;;;;;4954422;28;20027;-65
2021/01/21 00:57:33;;;;;;;13.05;6.63;;;6.10;99.90;;;;;;4954753;28;20066;-65
2021/01/21 00:59:59;;;;;;;9.17;5.27;;;6.10;99.90;;;;;;4954311;28;20065;-66
2021/01/21 01:02:24;;;;;;;10.73;6.03;;;6.10;99.90;;;;;;4956770;28;20027;-65
2021/01/21 01:04:50;;;;;;;9.37;6.10;;;6.10;99.90;;;;;;4954961;28;20042;-66
2021/01/21 01:07:15;;;;;;;12.00;6.30;;;6.10;99.90;;;;;;4954477;28;20053;-66
2021/01/21 01:09:41;;;;;;;11.03;6.00;;;6.20;99.90;;;;;;4955008;28;20027;-66
2021/01/21 01:12:07;;;;;;;9.93;5.40;;;6.10;99.90;;;;;;4953336;28;20027;-66
2021/01/21 01:14:33;;;;;;;8.57;5.43;;;6.20;99.90;;;;;;4954710;28;20112;-66
2021/01/21 01:16:58;;;;;;;12.43;5.63;;;6.20;99.90;;;;;;4955261;28;20039;-66
2021/01/21 01:19:24;;;;;;;9.63;5.53;;;6.20;99.90;;;;;;4955509;28;20027;-66
2021/01/21 01:21:49;;;;;;;11.70;6.03;;;6.20;99.90;;;;;;4955068;28;20038;-67
2021/01/21 01:24:15;;;;;;;10.70;6.00;;;6.20;99.90;;;;;;4954558;28;20055;-67
2021/01/21 01:26:41;;;;;;;11.73;4.93;;;6.20;99.90;;;;;;4954801;28;20023;-66
2021/01/21 01:29:07;;;;;;;7.37;5.03;;;6.20;99.90;;;;;;4955216;28;20027;-67
2021/01/21 01:31:32;;;;;;;7.65;5.45;;;6.20;99.90;;;;;;4953268;28;20035;-67
2021/01/21 01:33:58;;;;;;;10.27;5.77;;;6.20;99.90;;;;;;4956160;28;20042;-67
2021/01/21 01:36:24;;;;;;;10.00;5.47;;;6.20;99.90;;;;;;4954824;28;20083;-66
2021/01/21 01:38:49;;;;;;;9.27;5.70;;;6.20;99.90;;;;;;4954545;28;20035;-66
2021/01/21 01:41:15;;;;;;;9.60;5.27;;;6.30;99.90;;;;;;4954119;28;20093;-66
2021/01/21 01:43:40;;;;;;;8.67;5.03;;;6.30;99.90;;;;;;4954080;28;20035;-66
2021/01/21 01:46:07;;;;;;;10.23;5.40;;;6.30;99.90;;;;;;4953921;28;20153;-66
2021/01/21 01:48:33;;;;;;;9.57;4.78;;;6.30;99.90;;;;;;4954099;28;20106;-67
2021/01/21 01:51:00;;;;;;;7.63;4.97;;;6.30;99.90;;;;;;4953872;28;20070;-66
2021/01/21 01:53:34;;;;;;;9.63;5.45;;;6.30;99.90;;;;;;4953656;28;20035;-66
2021/01/21 01:56:00;;;;;;;9.13;4.85;;;6.30;99.90;;;;;;4952446;28;20066;-66
2021/01/21 01:58:26;;;;;;;8.75;5.63;;;6.30;99.90;;;;;;4953803;28;20559;-66
2021/01/21 02:00:54;;;;;;;8.20;4.80;;;6.30;99.90;;;;;;4952405;28;20039;-65
2021/01/21 02:03:21;;;;;;;7.93;5.07;;;6.30;99.90;;;;;;4953465;28;20020;-66
2021/01/21 02:05:47;;;;;;;;;;;6.40;99.90;;;;;;4953974;28;20053;-66
2021/01/21 02:08:13;;;;;;;9.85;5.18;;;6.40;99.90;;;;;;4953375;28;20389;-65
2021/01/21 02:10:39;;;;;;;8.18;5.00;;;6.40;99.90;;;;;;4953351;28;20035;-65
2021/01/21 02:13:30;;;;;;;8.77;4.88;;;6.40;99.90;;;;;;4953332;28;20475;-65
2021/01/21 02:16:23;;;;;;;11.45;5.05;;;6.30;99.90;;;;;;4952075;28;20039;-65
2021/01/21 02:19:01;;;;;;;8.70;5.10;;;6.30;99.90;;;;;;4953494;28;20027;-65
2021/01/21 02:22:08;;;;;;;5.72;4.35;;;6.30;99.90;;;;;;4953648;28;20042;-66
2021/01/21 02:25:13;;;;;;;11.65;5.78;;;6.30;99.90;;;;;;4973371;28;20062;-66
2021/01/21 02:27:57;;;;;;;9.20;4.72;;;6.30;99.90;;;;;;5012401;28;20026;-66
2021/01/21 02:30:50;;;;;;;10.57;4.47;;;6.30;99.90;;;;;;4956045;28;20412;-66
2021/01/21 02:33:47;;;;;;;8.20;4.78;;;6.30;99.90;;;;;;4953094;28;20471;-66
2021/01/21 02:36:20;;;;;;;9.95;4.50;;;6.30;99.90;;;;;;4953228;28;20395;-66
2021/01/21 02:38:47;;;;;;;9.68;4.90;;;6.30;99.90;;;;;;4952953;28;20028;-65
2021/01/21 02:41:14;;;;;;;7.85;4.70;;;6.40;99.90;;;;;;4951707;28;20027;-66
2021/01/21 02:43:40;;;;;;;9.32;4.80;;;6.40;99.90;;;;;;4952901;28;20024;-66
2021/01/21 02:46:05;;;;;;;11.13;5.50;;;6.40;99.90;;;;;;4950560;28;20027;-66
2021/01/21 02:48:32;;;;;;;8.23;4.82;;;6.40;99.90;;;;;;4953194;28;20031;-66
2021/01/21 02:51:07;;;;;;;;;;;6.40;99.90;;;;;;4952024;28;20131;-67
2021/01/21 02:53:37;;;;;;;8.25;4.28;;;6.40;99.90;;;;;;4951614;28;20333;-66
2021/01/21 02:56:09;;;;;;;8.63;4.88;;;6.40;99.90;;;;;;4952926;28;20189;-66
2021/01/21 02:58:41;;;;;;;8.70;5.15;;;6.40;99.90;;;;;;4953372;28;20073;-66
2021/01/21 03:01:08;;;;;;;9.88;5.20;;;6.40;99.90;;;;;;4952824;28;20031;-66
2021/01/21 03:03:36;;;;;;;8.65;4.95;;;6.40;99.90;;;;;;4952598;28;20019;-66
2021/01/21 03:06:05;;;;;;;9.77;5.07;;;6.40;99.90;;;;;;4952875;28;20103;-66
2021/01/21 03:08:31;;;;;;;8.77;4.65;;;6.40;99.90;;;;;;4952865;28;20020;-66
2021/01/21 03:11:11;;;;;;;7.45;4.68;;;6.40;99.90;;;;;;4952652;28;20519;-66
2021/01/21 03:13:41;;;;;;;8.25;4.60;;;6.40;99.90;;;;;;4952438;28;20126;-66
2021/01/21 03:16:07;;;;;;;9.35;5.35;;;6.40;99.90;;;;;;4952706;28;20055;-67
2021/01/21 03:18:33;;;;;;;10.95;4.80;;;6.40;99.90;;;;;;4951176;28;20492;-67
2021/01/21 03:20:59;;;;;;;7.83;4.07;;;6.40;99.90;;;;;;4951450;28;20042;-67
2021/01/21 03:23:25;;;;;;;13.13;5.07;;;6.40;99.90;;;;;;4951372;28;20019;-67
2021/01/21 03:25:50;;;;;;;8.30;4.37;;;6.40;99.90;;;;;;4952691;28;20085;-66
2021/01/21 03:28:16;;;;;;;8.03;4.93;;;6.40;99.90;;;;;;4952473;28;20073;-66
2021/01/21 03:30:42;;;;;;;6.87;4.13;;;6.40;99.90;;;;;;4952604;28;20121;-66
2021/01/21 03:33:07;;;;;;;8.53;4.90;;;6.40;99.90;;;;;;4952326;28;20468;-67
2021/01/21 03:35:33;;;;;;;6.37;4.23;;;6.50;99.90;;;;;;4952486;28;20062;-67
2021/01/21 03:37:58;;;;;;;8.40;4.53;;;6.40;99.90;;;;;;4952934;28;20542;-67
2021/01/21 03:40:24;;;;;;;9.93;4.30;;;6.40;99.90;;;;;;4951095;28;20030;-65
2021/01/21 03:42:50;;;;;;;7.33;4.67;;;6.40;99.90;;;;;;4952332;28;20027;-66
2021/01/21 03:45:15;;;;;;;10.20;4.37;;;6.40;99.90;;;;;;4952334;28;20023;-66
2021/01/21 03:47:41;;;;;;;9.43;5.22;;;6.40;99.90;;;;;;4952457;28;20114;-66
2021/01/21 03:50:08;;;;;;;7.53;4.17;;;6.40;99.90;;;;;;4952294;28;20046;-66
2021/01/21 03:52:33;;;;;;;9.48;4.72;;;6.40;99.90;;;;;;4953039;28;20054;-66
2021/01/21 03:54:59;;;;;;;10.37;4.40;;;6.30;99.90;;;;;;4953131;28;20476;-66
2021/01/21 03:57:24;;;;;;;9.20;4.27;;;6.30;99.90;;;;;;4951856;28;20476;-66
2021/01/21 03:59:50;;;;;;;5.47;3.67;;;6.30;99.90;;;;;;4952114;28;20114;-66
2021/01/21 04:02:16;;;;;;;7.13;3.63;;;6.30;99.90;;;;;;4952003;28;20064;-66
2021/01/21 04:04:41;;;;;;;5.83;3.33;;;6.30;99.90;;;;;;4952456;28;20038;-66
2021/01/21 04:07:07;;;;;;;5.77;3.37;;;6.30;99.90;;;;;;4951912;28;20027;-66
2021/01/21 04:09:32;;;;;;;7.47;3.07;;;6.40;99.90;;;;;;4952193;28;20069;-66
2021/01/21 04:11:58;;;;;;;5.30;3.30;;;6.40;99.90;;;;;;4950573;28;20031;-66
2021/01/21 04:14:24;;;;;;;5.70;3.47;;;6.50;99.90;;;;;;4952073;28;20077;-66
2021/01/21 04:16:49;;;;;;;6.43;3.30;;;6.50;99.90;;;;;;4951758;28;20032;-66
2021/01/21 04:19:15;;;;;;;7.83;3.37;;;6.60;99.90;;;;;;4950514;28;20027;-66
2021/01/21 04:21:40;;;;;;;6.73;3.30;;;6.60;99.90;;;;;;4952016;28;20027;-67
2021/01/21 04:24:06;;;;;;;6.17;3.13;;;6.60;99.90;;;;;;4952091;28;20472;-66
2021/01/21 04:26:32;;;;;;;5.77;3.20;;;6.60;99.90;;;;;;4952396;28;20028;-66
2021/01/21 04:28:57;;;;;;;5.97;2.70;;;6.60;99.90;;;;;;4950424;28;20028;-67
2021/01/21 04:31:23;;;;;;;8.57;3.70;;;6.60;99.90;;;;;;4951834;28;20061;-66
2021/01/21 04:33:49;;;;;;;4.93;2.87;;;6.60;99.90;;;;;;4950725;28;20105;-67
2021/01/21 04:36:14;;;;;;;4.70;2.63;;;6.60;99.90;;;;;;4950515;28;20399;-66
2021/01/21 04:38:40;;;;;;;5.60;2.63;;;6.60;99.90;;;;;;4952041;28;20504;-66
2021/01/21 04:41:06;;;;;;;7.78;2.75;;;6.60;99.90;;;;;;4952044;28;20478;-66
2021/01/21 04:43:32;;;;;;;5.00;2.50;;;6.50;99.90;;;;;;4951720;28;20150;-67
2021/01/21 04:45:58;;;;;;;3.97;2.33;;;6.60;99.90;;;;;;4951957;28;20111;-67
2021/01/21 04:48:25;;;;;;;5.63;2.35;;;6.60;99.90;;;;;;4950237;28;20077;-67
2021/01/21 04:50:52;;;;;;;4.45;2.65;;;6.70;99.90;;;;;;4951622;28;20488;-66
2021/01/21 04:53:24;;;;;;;5.13;2.20;;;6.70;99.90;;;;;;4950596;28;20483;-67
2021/01/21 04:55:56;;;;;;;4.07;2.35;;;6.90;99.90;;;;;;4951835;28;20027;-67
2021/01/21 04:58:30;;;;;;;5.20;2.30;;;7.00;99.90;;;;;;4951850;28;20023;-66
2021/01/21 05:00:57;;;;;;;4.47;2.20;;;7.10;99.90;;;;;;4951658;28;20093;-66
2021/01/21 05:03:23;;;;;;;3.67;1.95;;;7.20;99.90;;;;;;4951378;28;20034;-66
2021/01/21 05:05:49;;;;;;;5.90;2.35;;;7.20;99.90;;;;;;4951262;28;20039;-67
2021/01/21 05:08:15;;;;;;;6.68;2.70;;;7.30;99.90;;;;;;4949896;28;20035;-67
2021/01/21 05:10:41;;;;;;;2.97;1.95;;;7.50;99.90;;;;;;4954293;28;20035;-67
2021/01/21 05:13:06;;;;;;;3.80;1.50;;;7.60;99.90;;;;;;4954704;28;20480;-67
2021/01/21 05:15:32;;;;;;;2.60;1.40;;;7.80;99.30;;;;;;4954694;28;20078;-66
2021/01/21 05:17:59;;;;;;;6.30;1.23;;;8.00;99.10;;;;;;4953359;28;20042;-66
2021/01/21 05:20:24;;;;;;;;;;;8.10;98.00;;;;;;4955307;28;20420;-66
2021/01/21 05:23:00;;;;;;;3.78;1.45;;;8.30;97.40;;;;;;4953439;28;20005;-66
2021/01/21 05:25:27;;;;;;;2.42;1.42;;;8.50;96.90;;;;;;4954746;28;20020;-66
2021/01/21 05:27:54;;;;;;;;;;;8.50;97.00;;;;;;4953706;29;20392;-66
2021/01/21 05:30:20;;;;;;;;;;;8.70;95.50;;;;;;4953544;29;19906;-66
2021/01/21 05:32:45;;;;;;;;;;;8.90;94.70;;;;;;4954706;29;20333;-66
2021/01/21 05:35:14;;;;;;;;;;;9.20;93.70;;;;;;4954699;29;20398;-66
2021/01/21 05:37:40;;;;;;;;;;;9.30;93.40;;;;;;4954885;28;20346;-67
2021/01/21 05:40:07;;;;;;;;;;;9.50;92.90;;;;;;4954482;29;19961;-66
2021/01/21 05:42:35;;;;;;;;;;;9.60;92.40;;;;;;4954613;28;19935;-66
2021/01/21 05:45:01;;;;;;;;;;;9.90;91.60;;;;;;4954737;29;19907;-66
2021/01/21 05:47:27;;;;;;;;;;;10.10;91.30;;;;;;4953056;28;19906;-66
2021/01/21 05:49:53;;;;;;;;;;;10.30;90.20;;;;;;4954792;29;19910;-66
2021/01/21 05:52:18;;;;;;;;;;;10.70;87.90;;;;;;4954051;28;20295;-67
2021/01/21 05:54:44;;;;;;;;;;;10.80;86.60;;;;;;4954849;29;20315;-66
2021/01/21 05:57:09;;;;;;;;;;;10.90;87.20;;;;;;4954720;29;19907;-66
2021/01/21 05:59:35;;;;;;;;;;;11.00;86.50;;;;;;4954818;29;19911;-67
2021/01/21 06:02:02;;;;;;;;;;;11.10;86.00;;;;;;4954516;29;19985;-66
2021/01/21 06:04:28;;;;;;;;;;;11.20;85.30;;;;;;4954367;28;19938;-65
2021/01/21 06:06:54;;;;;;;;;;;11.30;85.70;;;;;;4954108;28;19953;-66
2021/01/21 06:09:26;;;;;;;;;;;11.50;85.30;;;;;;4954058;29;20290;-67
2021/01/21 06:11:52;;;;;;;;;;;11.50;84.60;;;;;;4952646;28;19954;-65
2021/01/21 06:14:21;;;;;;;;;;;11.70;83.90;;;;;;4954193;28;19906;-65
2021/01/21 06:16:48;;;;;;;;;;;11.80;84.50;;;;;;4953985;29;19913;-65
2021/01/21 06:19:14;;;;;;;;;;;11.80;84.00;;;;;;4952531;28;19910;-66
2021/01/21 06:21:43;;;;;;;;;;;11.80;84.60;;;;;;4953728;29;19907;-61
2021/01/21 06:24:09;;;;;;;;;;;11.80;86.60;;;;;;4953742;29;19907;-62
2021/01/21 06:26:41;;;;;;;;;;;12.00;85.40;;;;;;4953936;29;19932;-62
2021/01/21 06:29:09;;;;;;;;;;;12.00;85.10;;;;;;4954231;28;19913;-65
2021/01/21 06:31:35;;;;;;;;;;;12.20;85.20;;;;;;4953605;29;20351;-65
2021/01/21 06:34:01;;;;;;;;;;;12.20;85.70;;;;;;4953734;29;19914;-63
2021/01/21 06:36:27;;;;;;;;;;;12.20;87.70;;;;;;4953452;29;19907;-63
2021/01/21 06:38:55;;;;;;;;;;;12.20;88.10;;;;;;4953394;29;19911;-62
2021/01/21 06:41:22;;;;;;;;;;;12.20;89.40;;;;;;4953830;28;19910;-65
2021/01/21 06:43:48;;;;;;;;;;;12.20;90.30;;;;;;4953643;29;19957;-66
2021/01/21 06:46:14;;;;;;;;;;;12.10;90.90;;;;;;4953940;29;19960;-67
2021/01/21 06:48:41;;;;;;;;;;;12.20;91.10;;;;;;4953897;28;20270;-69
2021/01/21 06:51:08;;;;;;;;;;;12.10;91.70;;;;;;4953754;29;19953;-68
2021/01/21 06:53:34;;;;;;;;;;;12.30;91.40;;;;;;4953741;28;19918;-71
2021/01/21 06:56:00;;;;;;;;;;;12.30;91.60;;;;;;4951452;29;20394;-72
2021/01/21 06:58:44;;;;;;;;;;;12.30;91.80;;;;;;4951992;28;19906;-66
2021/01/21 07:01:29;;;;;;;;;;;12.30;92.30;;;;;;4951459;28;19910;-67
2021/01/21 07:03:55;;;;;;;;;;;12.40;92.70;;;;;;4954021;28;19960;-68
2021/01/21 07:06:20;;;;;;;;;;;12.40;92.50;;;;;;4953835;29;19906;-68
2021/01/21 07:09:05;;;;;;;;;;;12.40;92.80;;;;;;4952604;28;19956;-66
2021/01/21 07:11:31;;;;;;;;;;;12.40;93.30;;;;;;4954771;29;19998;-68
2021/01/21 07:13:57;;;;;;;;;;;12.30;93.80;;;;;;4953787;29;19992;-68
2021/01/21 07:16:24;;;;;;;;;;;12.30;94.40;;;;;;4953830;29;20291;-66
2021/01/21 07:18:51;;;;;;;;;;;12.20;94.80;;;;;;4952480;28;19906;-64
2021/01/21 07:21:22;;;;;;;;;;;12.10;95.20;;;;;;4953784;29;19918;-64
2021/01/21 07:23:48;;;;;;;;;;;12.20;95.60;;;;;;4953546;29;19952;-64
2021/01/21 07:26:14;;;;;;;;;;;12.20;95.80;;;;;;4954101;28;19906;-65
2021/01/21 07:28:55;;;;;;;;;;;12.30;95.60;;;;;;4953027;28;19907;-64
2021/01/21 07:31:21;;;;;;;;;;;12.20;95.40;;;;;;4952608;28;20385;-66
2021/01/21 07:33:46;;;;;;;;;;;12.10;95.50;;;;;;4952692;28;19985;-66
2021/01/21 07:36:28;;;;;;;;;;;12.00;95.60;;;;;;4953294;29;20371;-66
2021/01/21 07:38:53;;;;;;;;;;;12.00;95.70;;;;;;4953351;29;19907;-66
2021/01/21 07:41:37;;;;;;;;;;;12.00;96.10;;;;;;4953362;29;20047;-67
2021/01/21 07:44:03;;;;;;;;;;;12.00;95.80;;;;;;4952882;28;19914;-67
2021/01/21 07:46:29;;;;;;;;;;;12.00;95.90;;;;;;4951678;28;20366;-65
2021/01/21 07:49:17;;;;;;;;;;;12.10;96.00;;;;;;4953126;29;19907;-64
2021/01/21 07:51:43;;;;;;;;;;;12.20;95.90;;;;;;4966441;28;20013;-65
2021/01/21 07:54:09;;;;;;;;;;;12.20;96.00;;;;;;4953810;29;19977;-66
2021/01/21 07:56:38;;;;;;;;;;;12.30;96.00;;;;;;4953498;29;19906;-65
2021/01/21 07:59:04;;;;;;;;;;;12.40;96.10;;;;;;4953067;28;19907;-67
2021/01/21 08:01:29;;;;;;;;;;;12.40;96.20;;;;;;4953331;29;19914;-67
2021/01/21 08:03:55;;;;;;;;;;;12.50;96.20;;;;;;4952744;29;19907;-67
2021/01/21 08:06:25;;;;;;;;;;;12.60;96.10;;;;;;4952787;29;19942;-68
2021/01/21 08:08:51;;;;;;;;;;;12.60;96.20;;;;;;4951402;28;19968;-67
2021/01/21 08:11:18;;;;;;;;;;;12.70;96.30;;;;;;4951125;28;19906;-67
2021/01/21 08:13:44;;;;;;;;;;;12.70;96.40;;;;;;4952838;29;19917;-65
2021/01/21 08:16:16;;;;;;;;;;;12.70;96.60;;;;;;4952868;29;19910;-66
2021/01/21 08:18:41;;;;;;;;;;;12.60;96.60;;;;;;4953568;29;19988;-66
2021/01/21 08:21:19;;;;;;;;;;;12.60;96.80;;;;;;4952601;28;19953;-65
2021/01/21 08:23:55;;;;;;;;;;;12.60;96.80;;;;;;4952505;29;19993;-65
2021/01/21 08:26:20;;;;;;;;;;;12.60;97.00;;;;;;4952190;29;19952;-65
2021/01/21 08:28:46;;;;;;;;;;;12.60;97.50;;;;;;4952365;29;19910;-65
2021/01/21 08:31:12;;;;;;;;;;;12.60;97.80;;;;;;4952150;29;19967;-65
2021/01/21 08:33:39;;;;;;;;;;;12.60;97.60;;;;;;4952075;29;19914;-66
2021/01/21 08:36:05;;;;;;;;;;;12.60;97.70;;;;;;4952195;29;19964;-65
2021/01/21 08:38:36;;;;;;;;;;;12.60;97.80;;;;;;4952170;29;19906;-66
2021/01/21 08:41:02;;;;;;;;;;;12.60;98.00;;;;;;4952537;29;19910;-66
2021/01/21 08:43:28;;;;;;;;;;;12.60;97.90;;;;;;4952064;28;19956;-67
2021/01/21 08:45:54;;;;;;;;;;;12.60;97.90;;;;;;4955682;29;19918;-65
2021/01/21 08:48:26;;;;;;;;;;;12.60;97.80;;;;;;4955550;29;19906;-65
2021/01/21 08:50:52;;;;;;;;;;;12.60;97.90;;;;;;4955718;29;20278;-64
2021/01/21 08:53:22;;;;;;;;;;;12.60;97.70;;;;;;4955354;28;19914;-61
2021/01/21 08:55:48;;;;;;;;;;;12.70;97.60;;;;;;4955822;29;19906;-62
2021/01/21 08:58:15;;;;;;;;;;;12.80;97.50;;;;;;4955543;28;20260;-62
2021/01/21 09:00:59;;;;;;;;;;;12.80;97.50;;;;;;4955620;29;20347;-64
2021/01/21 09:03:36;;;;;;;;;;;12.90;97.30;;;;;;4955489;28;19913;-63
2021/01/21 09:06:02;;;;;;;;;;;13.00;96.90;;;;;;4955572;28;19906;-63
2021/01/21 09:08:28;;;;;;;;;;;13.00;96.80;;;;;;4955191;29;20295;-63
2021/01/21 09:10:56;;;;;;;;;;;13.10;96.80;;;;;;4955595;29;19910;-64
2021/01/21 09:13:22;;;;;;;;;;;13.10;96.50;;;;;;4955886;28;20017;-63
2021/01/21 09:15:52;;;;;;;;;;;13.10;96.60;;;;;;4955415;29;19952;-63
2021/01/21 09:18:18;;;;;;;;;;;13.20;96.50;;;;;;4955464;28;19913;-62
2021/01/21 09:20:44;;;;;;;;;;;13.20;96.60;;;;;;4955212;28;20375;-64
2021/01/21 09:23:19;;;;;;;;;;;13.30;96.50;;;;;;4955258;29;19917;-63
2021/01/21 09:25:45;;;;;;;;;;;13.40;96.20;;;;;;4953818;28;19913;-63
2021/01/21 09:28:12;;;;;;;;;;;13.40;96.30;;;;;;4954913;29;19907;-63
2021/01/21 09:30:38;;;;;;;;;;;13.50;96.30;;;;;;4953653;28;19907;-63
2021/01/21 09:33:04;;;;;;;;;;;13.60;96.00;;;;;;4955033;29;19940;-62
2021/01/21 09:35:29;;;;;;;;;;;13.70;96.00;;;;;;4955344;28;19906;-63
2021/01/21 09:37:56;;;;;;;;;;;13.60;96.50;;;;;;4955238;28;19907;-66
2021/01/21 09:40:22;;;;;;;;;;;13.50;97.60;;;;;;4955022;28;19923;-64
2021/01/21 09:42:48;;;;;;;;;;;13.50;97.80;;;;;;4955465;29;19907;-64
2021/01/21 09:45:14;;;;;;;;;;;13.50;98.40;;;;;;4955027;29;19906;-62
2021/01/21 09:47:40;;;;;;;;;;;13.50;98.10;;;;;;4953797;29;19907;-64
2021/01/21 09:50:06;;;;;;;;;;;13.50;98.70;;;;;;4956429;28;19906;-64
2021/01/21 09:52:32;;;;;;;;;;;13.40;98.90;;;;;;4955208;29;19915;-64
2021/01/21 09:55:03;;;;;;;;;;;13.20;99.70;;;;;;4954369;28;19910;-63
2021/01/21 09:57:28;;;;;;;;;;;13.00;99.90;;;;;;4954569;28;19960;-64
2021/01/21 09:59:54;;;;;;;;;;;12.90;99.90;;;;;;4954525;28;20009;-65
2021/01/21 10:02:20;;;;;;;;;;;12.80;99.90;;;;;;4954383;29;20286;-65
2021/01/21 10:04:45;;;;;;;;;;;12.60;99.90;;;;;;4954336;29;19906;-64
2021/01/21 10:07:11;;;;;;;;;;;12.60;99.90;;;;;;4954304;29;19906;-63
2021/01/21 10:09:36;;;;;;;;;;;12.50;99.90;;;;;;4954540;28;19906;-64
2021/01/21 10:12:02;;;;;;;;;;;12.40;99.90;;;;;;4954285;29;19906;-64
2021/01/21 10:14:28;;;;;;;;;;;12.40;99.90;;;;;;4954344;29;19906;-63
2021/01/21 10:16:54;;;;;;;;;;;12.50;99.90;;;;;;4954408;29;19913;-63
2021/01/21 10:19:19;;;;;;;;;;;12.40;99.90;;;;;;4954825;29;19910;-64
2021/01/21 10:21:45;;;;;;;;;;;12.40;99.90;;;;;;4954335;29;19907;-63
2021/01/21 10:24:11;;;;;;;;;;;12.40;99.90;;;;;;4954326;29;19913;-64
2021/01/21 10:26:36;;;;;;;;;;;12.40;99.90;;;;;;4954082;28;20274;-66
2021/01/21 10:29:02;;;;;;;;;;;12.50;99.90;;;;;;4953957;29;19912;-63
2021/01/21 10:31:27;;;;;;;;;;;12.60;99.90;;;;;;4953713;29;20355;-66
2021/01/21 10:33:53;;;;;;;;;;;12.60;99.90;;;;;;4954121;29;19911;-64
2021/01/21 10:36:18;;;;;;;;;;;12.60;99.90;;;;;;4952347;28;19914;-64
2021/01/21 10:38:44;;;;;;;;;;;12.60;99.90;;;;;;4954888;29;19949;-64
2021/01/21 10:41:09;;;;;;;;;;;12.60;99.90;;;;;;4953759;29;19911;-65
2021/01/21 10:43:35;;;;;;;;;;;12.50;99.90;;;;;;4953833;29;19914;-64
2021/01/21 10:46:01;;;;;;;;;;;12.60;99.90;;;;;;4954209;29;19906;-64
2021/01/21 10:48:26;;;;;;;;;;;12.60;99.90;;;;;;4952660;29;19906;-64
2021/01/21 10:50:52;;;;;;;;;;;12.70;99.90;;;;;;4954163;28;19935;-63
2021/01/21 10:53:18;;;;;;;;;;;12.80;99.90;;;;;;4953390;28;19924;-63
2021/01/21 10:55:43;;;;;;;;;;;12.90;99.90;;;;;;4952260;28;19910;-64
2021/01/21 10:58:09;;;;;;;;;;;13.00;99.90;;;;;;4953223;29;19913;-64
2021/01/21 11:00:34;;;;;;;;;;;13.10;99.90;;;;;;4954099;28;19917;-65
2021/01/21 11:03:01;;;;;;;;;;;13.20;99.90;;;;;;4954239;28;19968;-64
2021/01/21 11:05:29;;;;;;;;;;;13.30;99.90;;;;;;4953218;28;19907;-64
2021/01/21 11:07:55;;;;;;;;;;;13.40;99.90;;;;;;4953353;29;20383;-64
2021/01/21 11:10:20;;;;;;;;;;;13.50;99.90;;;;;;4953884;28;19972;-66
2021/01/21 11:12:48;;;;;;;;;;;13.40;99.90;;;;;;4953398;29;19906;-65
2021/01/21 11:15:16;;;;;;;;;;;13.40;99.90;;;;;;4953114;29;20005;-64
2021/01/21 11:17:45;;;;;;;;;;;13.40;99.90;;;;;;4953364;28;19950;-64
2021/01/21 11:20:12;;;;;;;;;;;13.40;99.90;;;;;;4953223;28;20378;-64
2021/01/21 11:22:38;;;;;;;;;;;13.40;99.90;;;;;;4953059;29;19906;-63
2021/01/21 11:25:05;;;;;;;;;;;13.40;99.90;;;;;;4953466;28;19910;-63
2021/01/21 11:27:30;;;;;;;;;;;13.30;99.90;;;;;;4953513;28;19933;-65
2021/01/21 11:29:56;;;;;;;;;;;13.40;99.90;;;;;;4953369;29;19907;-63
2021/01/21 11:32:21;;;;;;;;;;;13.30;99.90;;;;;;4952054;28;19907;-64
2021/01/21 11:34:47;;;;;;;;;;;13.30;99.90;;;;;;4955169;29;19907;-65
2021/01/21 11:37:12;;;;;;;;;;;13.10;99.90;;;;;;4954567;29;20359;-63
2021/01/21 11:39:37;;;;;;;;;;;13.10;99.90;;;;;;4953170;29;19946;-64
2021/01/21 11:42:03;;;;;;;;;;;13.00;99.90;;;;;;4952914;28;19933;-65
2021/01/21 11:44:29;;;;;;;;;;;12.90;99.90;;;;;;4953255;28;19907;-64
2021/01/21 11:46:55;;;;;;;;;;;12.80;99.90;;;;;;4952769;28;19989;-64
2021/01/21 11:49:21;;;;;;;;;;;12.70;99.90;;;;;;4952686;28;19921;-64
2021/01/21 11:51:49;;;;;;;;;;;12.70;99.90;;;;;;4952476;28;19907;-64
2021/01/21 11:54:15;;;;;;;;;;;12.60;99.90;;;;;;4952698;29;19906;-66
2021/01/21 11:56:40;;;;;;;;;;;12.60;99.90;;;;;;4952714;29;19929;-64
2021/01/21 11:59:06;;;;;;;;;;;12.60;99.90;;;;;;4952657;29;19906;-66
2021/01/21 12:01:31;;;;;;;;;;;12.60;99.90;;;;;;4953027;28;19913;-65
2021/01/21 12:03:59;;;;;;;;;;;12.50;99.90;;;;;;4952421;29;19907;-64
2021/01/21 12:06:25;;;;;;;;;;;12.40;99.90;;;;;;4953021;29;19907;-64
2021/01/21 12:08:51;;;;;;;;;;;12.40;99.90;;;;;;4952585;28;19906;-63
2021/01/21 12:11:16;;;;;;;;;;;12.40;99.90;;;;;;4952624;29;20260;-63
2021/01/21 12:13:42;;;;;;;;;;;12.30;99.90;;;;;;4952473;29;19929;-65
2021/01/21 12:16:08;;;;;;;;;;;12.20;99.90;;;;;;4952337;28;19914;-65
2021/01/21 12:18:33;;;;;;;;;;;12.10;99.90;;;;;;4954149;28;19910;-65
2021/01/21 12:20:59;;;;;;;;;;;12.00;99.90;;;;;;4956083;29;19917;-65
2021/01/21 12:23:24;;;;;;;;;;;11.80;99.90;;;;;;4956453;29;19949;-66
2021/01/21 12:25:50;;;;;;;;;;;11.70;99.90;;;;;;4956051;29;19917;-63
2021/01/21 12:28:15;;;;;;;;;;;11.50;99.90;;;;;;4957914;29;19938;-65
2021/01/21 12:30:41;;;;;;;;;;;11.40;99.90;;;;;;4956237;29;19983;-64
2021/01/21 12:33:06;;;;;;;;;;;11.20;99.90;;;;;;4955858;29;19906;-64
2021/01/21 12:35:32;;;;;;;;;;;11.00;99.90;;;;;;4955977;29;19956;-64
2021/01/21 12:37:57;;;;;;;;;;;10.80;99.90;;;;;;4955457;29;19975;-65
2021/01/21 12:40:23;;;;;;;;;;;10.80;99.90;;;;;;4955763;29;19914;-64
2021/01/21 12:42:48;;;;;;;;;;;10.60;99.90;;;;;;4955572;29;19907;-64
2021/01/21 12:45:14;;;;;;;;;;;10.50;99.90;;;;;;4955813;29;19906;-64
2021/01/21 12:47:39;;;;;;;;;;;10.40;99.90;;;;;;4955804;29;19907;-65
2021/01/21 12:50:06;;;;;;;;;;;10.40;99.90;;;;;;4956094;29;19906;-65
2021/01/21 12:52:31;;;;;;;;;;;10.30;99.90;;;;;;4955534;28;19968;-64
2021/01/21 12:54:58;;;;;;;;;;;10.10;99.90;;;;;;4955407;29;19907;-64
2021/01/21 12:57:24;;;;;;;;;;;10.10;99.90;;;;;;4955616;29;20000;-64
2021/01/21 12:59:49;;;;;;;;;;;10.00;99.90;;;;;;4955474;29;19991;-64
2021/01/21 13:02:15;;;;;;;;;;;9.90;99.90;;;;;;4955270;29;19907;-62
2021/01/21 13:04:41;;;;;;;;;;;9.80;99.90;;;;;;4955650;29;19906;-64
2021/01/21 13:07:06;;;;;;;;;;;9.80;99.90;;;;;;4955838;29;19907;-64
2021/01/21 13:09:32;;;;;;;;;;;9.70;99.90;;;;;;4956144;29;19967;-64
2021/01/21 13:11:58;;;;;;;;;;;9.60;99.90;;;;;;4956040;29;19913;-65
2021/01/21 13:14:23;;;;;;;;;;;9.60;99.90;;;;;;4956706;29;19910;-66
2021/01/21 13:16:50;;;;;;;;;;;9.50;99.90;;;;;;4955670;28;19930;-65
2021/01/21 13:19:16;;;;;;;;;;;9.40;99.90;;;;;;4956516;28;20335;-65
2021/01/21 13:21:43;;;;;;;;;;;9.40;99.90;;;;;;4957311;28;19913;-65
2021/01/21 13:24:09;;;;;;;;;;;9.30;99.90;;;;;;4957572;28;20362;-64
2021/01/21 13:26:34;;;;;;;;;;;9.30;99.90;;;;;;4956530;29;20385;-66
2021/01/21 13:29:00;;;;;;;;;;;9.20;99.90;;;;;;4957004;28;19906;-65
2021/01/21 13:31:25;;;;;;;;;;;9.20;99.90;;;;;;4957160;29;20001;-64
2021/01/21 13:33:51;;;;;;;;;;;9.20;99.90;;;;;;4957535;29;19906;-66
2021/01/21 13:36:16;;;;;;;;;;;9.10;99.90;;;;;;4961257;28;19906;-65
2021/01/21 13:38:42;;;;;;;;;;;9.10;99.90;;;;;;4961769;29;19910;-65
2021/01/21 13:41:08;;;;;;;;;;;9.10;99.90;;;;;;4960315;29;19997;-65
2021/01/21 13:43:33;;;;;;;;;;;9.10;99.90;;;;;;4960988;29;20321;-64
2021/01/21 13:45:59;;;;;;;;;;;9.20;99.90;;;;;;4960416;28;19907;-64